Time;durP1;ratioP1;P1;durP2;ratioP2;P2;SDS_P1;SDS_P2;PMS_P1;PMS_P2;Temp;Humidity;BMP_temperature;BMP_pressure;BME280_temperature;BME280_humidity;BME280_pressure;Samples;Min_cycle;Max_cycle;Signal;HPM_P1;HPM_P2
2022/07/30 00:01:14;;;;;;;3.08;2.38;;;21.10;99.90;;;;;;5095309;28;20024;-74
2022/07/30 00:03:40;;;;;;;3.10;2.30;;;21.10;99.90;;;;;;5094994;28;20028;-75
2022/07/30 00:06:05;;;;;;;2.97;2.38;;;21.00;99.90;;;;;;5095515;28;20024;-75
2022/07/30 00:08:31;;;;;;;2.58;2.33;;;21.00;99.90;;;;;;5095762;28;20381;-75
2022/07/30 00:10:57;;;;;;;2.13;1.88;;;21.00;99.90;;;;;;5095475;28;20043;-75
2022/07/30 00:13:22;;;;;;;3.95;2.33;;;20.90;99.90;;;;;;5095013;28;20035;-75
2022/07/30 00:15:48;;;;;;;2.53;2.08;;;20.90;99.90;;;;;;5095638;28;20024;-74
2022/07/30 00:18:14;;;;;;;2.67;1.92;;;20.90;99.90;;;;;;5094918;28;20028;-74
2022/07/30 00:20:39;;;;;;;2.55;1.85;;;20.90;99.90;;;;;;5095213;28;20103;-74
2022/07/30 00:23:05;;;;;;;2.30;2.10;;;20.90;99.90;;;;;;5095209;28;20377;-74
2022/07/30 00:25:31;;;;;;;1.98;1.70;;;20.90;99.90;;;;;;5094774;28;20020;-75
2022/07/30 00:27:57;;;;;;;2.00;1.80;;;20.80;99.90;;;;;;5094881;28;20472;-75
2022/07/30 00:30:23;;;;;;;4.60;1.95;;;20.90;99.90;;;;;;5094649;28;20125;-75
2022/07/30 00:32:49;;;;;;;1.35;1.00;;;20.90;99.90;;;;;;5094585;28;20028;-75
2022/07/30 00:35:15;;;;;;;1.30;1.20;;;20.80;99.90;;;;;;5094708;28;20024;-75
2022/07/30 00:37:41;;;;;;;1.35;1.20;;;20.80;99.90;;;;;;5094958;28;20103;-75
2022/07/30 00:40:08;;;;;;;1.08;0.98;;;20.80;99.90;;;;;;5094943;28;20034;-75
2022/07/30 00:42:45;;;;;;;2.42;1.20;;;20.90;99.90;;;;;;5094474;28;20038;-74
2022/07/30 00:45:11;;;;;;;1.00;0.90;;;20.80;99.90;;;;;;5094502;28;20462;-74
2022/07/30 00:47:38;;;;;;;0.90;0.90;;;20.80;99.90;;;;;;5094514;28;20039;-74
2022/07/30 00:50:07;;;;;;;0.90;0.70;;;20.80;99.90;;;;;;5094632;28;20035;-74
2022/07/30 00:52:34;;;;;;;1.10;1.00;;;20.70;99.90;;;;;;5094202;28;20059;-74
2022/07/30 00:55:00;;;;;;;1.20;1.00;;;20.70;99.90;;;;;;5094548;28;20020;-74
2022/07/30 00:57:27;;;;;;;0.75;0.70;;;20.70;99.90;;;;;;5093808;28;20358;-75
2022/07/30 00:59:53;;;;;;;0.77;0.77;;;20.70;99.90;;;;;;5094604;28;20143;-75
2022/07/30 01:02:19;;;;;;;0.63;0.63;;;20.70;99.90;;;;;;5094070;28;20028;-75
2022/07/30 01:04:44;;;;;;;2.40;0.73;;;20.70;99.90;;;;;;5094386;28;20373;-75
2022/07/30 01:07:10;;;;;;;0.85;0.63;;;20.60;99.90;;;;;;5094248;28;20036;-74
2022/07/30 01:09:37;;;;;;;0.98;0.77;;;20.60;99.90;;;;;;5094350;28;20055;-74
2022/07/30 01:12:05;;;;;;;0.88;0.70;;;20.60;99.90;;;;;;5093978;28;20028;-75
2022/07/30 01:14:33;;;;;;;1.35;0.90;;;20.60;99.90;;;;;;5093667;28;20040;-74
2022/07/30 01:16:58;;;;;;;1.40;0.88;;;20.50;99.90;;;;;;5094402;28;20371;-75
2022/07/30 01:22:29;;;;;;;1.00;0.90;;;20.50;99.90;;;;;;5093861;28;20385;-75
2022/07/30 01:25:07;;;;;;;0.80;0.65;;;20.50;99.90;;;;;;5094061;28;20032;-75
2022/07/30 01:27:49;;;;;;;1.25;0.95;;;20.50;99.90;;;;;;5093590;28;20028;-75
2022/07/30 01:30:17;;;;;;;0.60;0.60;;;20.50;99.90;;;;;;5093607;28;20567;-75
2022/07/30 01:32:44;;;;;;;0.85;0.85;;;20.50;99.90;;;;;;5093939;28;20055;-75
2022/07/30 01:35:11;;;;;;;1.40;0.85;;;20.50;99.90;;;;;;5093414;28;20028;-75
2022/07/30 01:37:38;;;;;;;0.63;0.63;;;20.50;99.90;;;;;;5092974;28;20380;-75
2022/07/30 01:40:05;;;;;;;0.73;0.73;;;20.50;99.90;;;;;;5093358;28;20028;-75
2022/07/30 01:42:32;;;;;;;0.70;0.70;;;20.50;99.90;;;;;;5093303;28;20048;-75
2022/07/30 01:44:59;;;;;;;0.50;0.50;;;20.40;99.90;;;;;;5092735;28;20052;-75
2022/07/30 01:47:27;;;;;;;1.60;0.77;;;20.40;99.90;;;;;;5093148;28;20396;-75
2022/07/30 01:49:54;;;;;;;0.73;0.70;;;20.40;99.90;;;;;;5093524;28;20028;-74
2022/07/30 01:52:22;;;;;;;0.88;0.88;;;20.40;99.90;;;;;;5093142;28;20056;-75
2022/07/30 01:54:50;;;;;;;0.80;0.80;;;20.40;99.90;;;;;;5091826;28;20024;-75
2022/07/30 01:57:18;;;;;;;2.15;0.80;;;20.40;99.90;;;;;;5093115;28;20039;-75
2022/07/30 01:59:49;;;;;;;1.02;0.75;;;20.40;99.90;;;;;;5093347;28;20350;-75
2022/07/30 02:02:14;;;;;;;1.10;1.00;;;20.40;99.90;;;;;;5093350;28;20038;-75
2022/07/30 02:04:40;;;;;;;1.33;1.05;;;20.30;99.90;;;;;;5093245;28;20028;-75
2022/07/30 02:07:31;;;;;;;1.38;0.90;;;20.30;99.90;;;;;;5092828;28;20027;-75
2022/07/30 02:10:14;;;;;;;1.15;0.98;;;20.30;99.90;;;;;;5093278;28;20047;-74
2022/07/30 02:12:50;;;;;;;0.52;0.52;;;20.20;99.90;;;;;;5092797;28;20042;-75
2022/07/30 02:15:33;;;;;;;1.08;0.98;;;20.10;99.90;;;;;;5093034;28;20020;-75
2022/07/30 02:18:20;;;;;;;1.10;0.85;;;20.10;99.90;;;;;;5093178;28;20036;-75
2022/07/30 02:21:04;;;;;;;0.82;0.70;;;20.10;99.90;;;;;;5092975;28;20074;-75
2022/07/30 02:23:34;;;;;;;1.23;0.85;;;20.10;99.90;;;;;;5092693;28;20111;-74
2022/07/30 02:26:00;;;;;;;1.60;0.82;;;20.10;99.90;;;;;;5092975;28;20021;-75
2022/07/30 02:28:29;;;;;;;0.95;0.95;;;20.10;99.90;;;;;;5092177;28;20071;-75
2022/07/30 02:30:59;;;;;;;1.75;0.80;;;20.00;99.90;;;;;;5092822;28;20488;-75
2022/07/30 02:33:32;;;;;;;1.10;1.00;;;20.00;99.90;;;;;;5092858;28;20025;-75
2022/07/30 02:35:58;;;;;;;1.20;1.10;;;20.00;99.90;;;;;;5092909;28;20123;-75
2022/07/30 02:38:27;;;;;;;0.95;0.85;;;20.00;99.90;;;;;;5091369;28;20349;-75
2022/07/30 02:40:56;;;;;;;1.10;1.00;;;20.00;99.90;;;;;;5092851;28;20035;-74
2022/07/30 02:43:24;;;;;;;2.00;1.17;;;20.00;99.90;;;;;;5091187;28;20027;-75
2022/07/30 02:45:51;;;;;;;2.10;1.30;;;20.00;99.90;;;;;;5092845;28;20027;-75
2022/07/30 02:48:20;;;;;;;1.17;1.02;;;20.00;99.90;;;;;;5092710;28;20028;-74
2022/07/30 02:50:49;;;;;;;1.10;1.00;;;20.00;99.90;;;;;;5092665;28;20321;-75
2022/07/30 02:53:16;;;;;;;1.27;1.17;;;20.00;99.90;;;;;;5092732;28;20043;-74
2022/07/30 02:55:44;;;;;;;1.67;1.10;;;20.00;99.90;;;;;;5092986;28;20047;-74
2022/07/30 02:58:14;;;;;;;1.17;1.08;;;19.90;99.90;;;;;;5096768;28;20047;-74
2022/07/30 03:00:41;;;;;;;2.40;1.35;;;19.90;99.90;;;;;;5096306;28;20736;-75
2022/07/30 03:03:08;;;;;;;2.35;1.40;;;19.90;99.90;;;;;;5096702;28;20027;-75
2022/07/30 03:05:35;;;;;;;2.03;1.63;;;19.90;99.90;;;;;;5096242;28;20024;-75
2022/07/30 03:08:03;;;;;;;1.83;1.35;;;19.80;99.90;;;;;;5096575;28;20052;-75
2022/07/30 03:10:30;;;;;;;1.52;1.42;;;19.90;99.90;;;;;;5096026;28;20070;-74
2022/07/30 03:12:58;;;;;;;2.08;1.88;;;19.80;99.90;;;;;;5096480;28;20093;-75
2022/07/30 03:15:25;;;;;;;2.30;1.67;;;19.90;99.90;;;;;;5095784;28;20533;-75
2022/07/30 03:17:52;;;;;;;2.10;1.90;;;19.90;99.90;;;;;;5096418;28;20024;-75
2022/07/30 03:20:22;;;;;;;3.15;1.90;;;19.90;99.90;;;;;;5096312;28;20061;-75
2022/07/30 03:22:51;;;;;;;2.55;1.83;;;19.90;99.90;;;;;;5096306;28;20020;-74
2022/07/30 03:25:23;;;;;;;2.67;1.95;;;19.90;99.90;;;;;;5095983;28;20081;-74
2022/07/30 03:27:49;;;;;;;2.45;2.00;;;19.90;99.90;;;;;;5097444;28;20025;-74
2022/07/30 03:30:15;;;;;;;2.75;2.08;;;19.90;99.90;;;;;;5092836;28;20049;-74
2022/07/30 03:32:42;;;;;;;2.42;1.83;;;19.90;99.90;;;;;;5095325;28;20062;-75
2022/07/30 03:35:09;;;;;;;2.03;1.60;;;19.90;99.90;;;;;;5095680;28;20369;-75
2022/07/30 03:37:37;;;;;;;3.05;1.60;;;19.90;99.90;;;;;;5095620;28;20024;-75
2022/07/30 03:40:05;;;;;;;2.15;1.75;;;19.90;99.90;;;;;;5095920;28;20032;-75
2022/07/30 03:42:32;;;;;;;1.58;1.48;;;19.90;99.90;;;;;;5095363;28;20113;-75
2022/07/30 03:45:00;;;;;;;1.60;1.50;;;20.00;99.90;;;;;;5095743;28;20035;-75
2022/07/30 03:47:26;;;;;;;2.47;1.80;;;20.00;99.90;;;;;;5094999;28;20050;-75
2022/07/30 03:49:52;;;;;;;2.47;1.58;;;20.00;99.90;;;;;;5095696;28;20047;-75
2022/07/30 03:52:18;;;;;;;1.70;1.48;;;20.00;99.90;;;;;;5095333;28;20460;-75
2022/07/30 03:54:45;;;;;;;1.95;1.55;;;20.00;99.90;;;;;;5093997;28;20896;-75
2022/07/30 03:57:11;;;;;;;3.25;2.13;;;20.00;99.90;;;;;;5095137;28;20028;-75
2022/07/30 03:59:38;;;;;;;3.10;1.42;;;20.10;99.90;;;;;;5095179;28;20032;-75
2022/07/30 04:02:03;;;;;;;1.98;1.55;;;20.00;99.90;;;;;;5095558;28;20056;-75
2022/07/30 04:04:29;;;;;;;5.60;1.60;;;20.00;99.90;;;;;;5094425;28;20071;-75
2022/07/30 04:06:58;;;;;;;2.10;1.30;;;20.00;99.90;;;;;;5095074;28;20032;-75
2022/07/30 04:09:24;;;;;;;2.13;1.50;;;20.00;99.90;;;;;;5095272;28;20460;-75
2022/07/30 04:11:50;;;;;;;1.92;1.55;;;20.00;99.90;;;;;;5095197;28;20039;-75
2022/07/30 04:14:16;;;;;;;3.25;1.75;;;20.00;99.90;;;;;;5095144;28;20346;-75
2022/07/30 04:17:02;;;;;;;2.28;1.45;;;20.00;99.90;;;;;;5094810;28;20028;-75
2022/07/30 04:19:40;;;;;;;1.33;1.20;;;20.00;99.90;;;;;;5094753;28;20027;-75
2022/07/30 04:22:07;;;;;;;2.55;1.60;;;20.00;99.90;;;;;;5094869;28;20056;-73
2022/07/30 04:24:34;;;;;;;1.95;1.73;;;20.00;99.90;;;;;;5093225;28;20055;-75
2022/07/30 04:27:02;;;;;;;1.27;1.10;;;20.00;99.90;;;;;;5094623;28;20028;-75
2022/07/30 04:29:27;;;;;;;2.83;1.70;;;19.90;99.90;;;;;;5094075;28;20071;-76
2022/07/30 04:31:54;;;;;;;1.75;1.60;;;19.90;99.90;;;;;;5094817;28;20062;-75
2022/07/30 04:34:20;;;;;;;1.55;1.45;;;20.00;99.90;;;;;;5094888;28;20535;-75
2022/07/30 04:36:45;;;;;;;1.50;1.40;;;20.00;99.90;;;;;;5094215;28;20106;-75
2022/07/30 04:39:11;;;;;;;1.98;1.73;;;19.90;99.90;;;;;;5094524;28;20504;-75
2022/07/30 04:41:38;;;;;;;3.05;1.95;;;19.90;99.90;;;;;;5094387;28;20028;-75
2022/07/30 04:44:04;;;;;;;2.08;1.80;;;20.00;99.90;;;;;;5094419;28;20032;-75
2022/07/30 04:46:29;;;;;;;2.35;2.15;;;19.90;99.90;;;;;;5092508;28;20059;-75
2022/07/30 04:48:55;;;;;;;2.35;1.90;;;19.90;99.90;;;;;;5094526;28;20094;-75
2022/07/30 04:51:34;;;;;;;1.83;1.52;;;19.90;99.90;;;;;;5094591;28;20024;-75
2022/07/30 04:54:04;;;;;;;2.03;1.70;;;19.90;99.90;;;;;;5094526;28;20108;-75
2022/07/30 04:56:31;;;;;;;2.33;1.70;;;19.90;99.90;;;;;;5093593;28;20024;-75
2022/07/30 04:58:57;;;;;;;1.98;1.77;;;19.90;99.90;;;;;;5094428;28;20032;-75
2022/07/30 05:01:26;;;;;;;2.67;1.80;;;19.90;99.90;;;;;;5082965;28;20373;-75
2022/07/30 05:03:53;;;;;;;1.55;1.45;;;19.90;99.90;;;;;;5081570;28;20028;-75
2022/07/30 05:06:20;;;;;;;2.50;1.70;;;19.90;99.90;;;;;;5094037;28;20111;-75
2022/07/30 05:08:46;;;;;;;2.30;1.58;;;19.90;99.90;;;;;;5093392;28;20054;-75
2022/07/30 05:11:13;;;;;;;1.88;1.65;;;19.90;99.90;;;;;;5093421;28;20195;-75
2022/07/30 05:13:43;;;;;;;1.65;1.55;;;19.90;99.90;;;;;;5093333;28;20035;-75
2022/07/30 05:16:10;;;;;;;1.98;1.70;;;19.90;99.90;;;;;;5093573;28;20170;-74
2022/07/30 05:18:36;;;;;;;2.15;1.45;;;19.90;99.90;;;;;;5092192;28;20032;-75
2022/07/30 05:21:02;;;;;;;2.08;1.58;;;19.90;99.90;;;;;;5093408;28;20436;-74
2022/07/30 05:23:28;;;;;;;3.03;2.15;;;19.90;99.90;;;;;;5093786;28;20406;-75
2022/07/30 05:25:54;;;;;;;2.13;1.65;;;19.90;99.90;;;;;;5093097;28;20073;-74
2022/07/30 05:28:19;;;;;;;1.48;1.38;;;19.90;99.90;;;;;;5093194;28;20029;-75
2022/07/30 05:30:45;;;;;;;1.60;1.50;;;19.90;99.90;;;;;;5092724;28;20464;-75
2022/07/30 05:33:10;;;;;;;1.98;1.50;;;19.90;99.90;;;;;;5093477;28;20354;-75
2022/07/30 05:35:36;;;;;;;3.22;1.40;;;19.90;99.90;;;;;;5092780;28;20036;-75
2022/07/30 05:38:02;;;;;;;2.08;1.48;;;19.80;99.90;;;;;;5081940;28;20025;-74
2022/07/30 05:40:28;;;;;;;1.58;1.30;;;19.80;99.90;;;;;;5086234;28;20043;-75
2022/07/30 05:42:53;;;;;;;1.75;1.50;;;19.80;99.90;;;;;;5092335;28;20028;-75
2022/07/30 05:45:19;;;;;;;1.52;1.38;;;19.80;99.90;;;;;;5093140;28;20024;-75
2022/07/30 05:47:44;;;;;;;1.77;1.63;;;19.80;99.90;;;;;;5092525;28;20073;-75
2022/07/30 05:50:11;;;;;;;2.50;1.60;;;19.80;99.90;;;;;;5092681;28;20032;-75
2022/07/30 05:52:37;;;;;;;2.22;1.83;;;19.80;99.90;;;;;;5092417;28;20602;-75
2022/07/30 05:55:03;;;;;;;1.80;1.70;;;19.90;99.90;;;;;;5093419;28;20103;-75
2022/07/30 05:57:29;;;;;;;1.88;1.50;;;19.90;99.90;;;;;;5093157;28;20023;-76
2022/07/30 05:59:54;;;;;;;2.10;1.77;;;19.90;99.90;;;;;;5092970;28;20028;-75
2022/07/30 06:02:20;;;;;;;1.25;1.10;;;19.90;99.90;;;;;;5092862;28;20032;-75
2022/07/30 06:04:45;;;;;;;1.13;1.00;;;19.90;99.90;;;;;;5092829;28;20028;-74
2022/07/30 06:07:11;;;;;;;1.42;1.17;;;19.80;99.90;;;;;;5093197;28;20035;-76
2022/07/30 06:09:37;;;;;;;1.25;1.02;;;19.80;99.90;;;;;;5092084;28;20546;-76
2022/07/30 06:12:03;;;;;;;1.30;1.05;;;19.80;99.90;;;;;;5093384;28;20028;-75
2022/07/30 06:14:30;;;;;;;1.30;1.02;;;19.80;99.90;;;;;;5092997;28;20039;-75
2022/07/30 06:16:56;;;;;;;1.20;1.10;;;19.80;99.90;;;;;;5092695;28;20383;-75
2022/07/30 06:19:22;;;;;;;1.35;1.17;;;19.70;99.90;;;;;;5093207;28;20036;-76
2022/07/30 06:21:47;;;;;;;1.25;0.85;;;19.70;99.90;;;;;;5092357;28;20380;-76
2022/07/30 06:24:13;;;;;;;1.00;0.90;;;19.70;99.90;;;;;;5093097;28;20076;-75
2022/07/30 06:26:39;;;;;;;1.40;1.10;;;19.60;99.90;;;;;;5092185;28;20483;-75
2022/07/30 06:29:05;;;;;;;2.30;0.93;;;19.60;99.90;;;;;;5094815;28;20040;-74
2022/07/30 06:31:30;;;;;;;0.85;0.85;;;19.60;99.90;;;;;;5094756;28;20062;-76
2022/07/30 06:33:56;;;;;;;0.90;0.90;;;19.60;99.90;;;;;;5102544;28;20050;-76
2022/07/30 06:36:22;;;;;;;1.42;1.23;;;19.60;99.90;;;;;;5094775;28;20149;-76
2022/07/30 06:38:47;;;;;;;1.00;0.90;;;19.60;99.90;;;;;;5091590;28;20111;-76
2022/07/30 06:41:14;;;;;;;1.20;1.10;;;19.60;99.90;;;;;;5092284;28;20136;-75
2022/07/30 06:43:40;;;;;;;1.75;1.00;;;19.60;99.90;;;;;;5102052;28;20024;-76
2022/07/30 06:46:06;;;;;;;1.10;0.93;;;19.50;99.90;;;;;;5096699;28;20029;-76
2022/07/30 06:48:31;;;;;;;1.25;1.05;;;19.50;99.90;;;;;;5092443;28;20031;-76
2022/07/30 06:50:57;;;;;;;1.48;1.15;;;19.50;99.90;;;;;;5089439;28;20027;-76
2022/07/30 06:53:23;;;;;;;1.35;1.20;;;19.50;99.90;;;;;;5092052;28;20020;-76
2022/07/30 06:55:49;;;;;;;1.30;1.13;;;19.50;99.90;;;;;;5092116;28;20372;-76
2022/07/30 06:58:15;;;;;;;3.47;1.17;;;19.50;99.90;;;;;;5083062;28;20024;-76
2022/07/30 07:00:43;;;;;;;1.38;1.05;;;19.50;99.90;;;;;;5091747;28;20099;-76
2022/07/30 07:03:10;;;;;;;1.23;1.13;;;19.50;99.90;;;;;;5092471;28;20137;-76
2022/07/30 07:05:36;;;;;;;1.48;1.08;;;19.50;99.90;;;;;;5092413;28;20055;-75
2022/07/30 07:08:01;;;;;;;1.80;1.10;;;19.50;99.90;;;;;;5091942;28;20020;-82
2022/07/30 07:10:27;;;;;;;1.13;1.02;;;19.50;99.90;;;;;;5092029;28;20033;-76
2022/07/30 07:12:53;;;;;;;1.52;1.20;;;19.50;99.90;;;;;;5088614;28;20028;-77
2022/07/30 07:15:18;;;;;;;1.80;1.45;;;19.50;99.90;;;;;;5091043;28;20032;-76
2022/07/30 07:17:44;;;;;;;1.95;1.20;;;19.50;99.90;;;;;;5091680;28;20107;-77
2022/07/30 07:20:10;;;;;;;1.58;1.10;;;19.50;99.90;;;;;;5091858;28;20063;-76
2022/07/30 07:22:36;;;;;;;1.20;1.10;;;19.50;99.90;;;;;;5091557;28;20530;-75
2022/07/30 07:25:02;;;;;;;1.20;1.10;;;19.50;99.90;;;;;;5091926;28;20020;-74
2022/07/30 07:27:27;;;;;;;1.15;1.00;;;19.60;99.90;;;;;;5092369;28;20054;-74
2022/07/30 07:29:53;;;;;;;1.83;1.08;;;19.50;99.90;;;;;;5090202;28;20123;-76
2022/07/30 07:32:19;;;;;;;3.90;1.13;;;19.60;99.90;;;;;;5091638;28;20060;-76
2022/07/30 07:34:44;;;;;;;1.30;0.90;;;19.60;99.90;;;;;;5092123;28;20457;-75
2022/07/30 07:37:10;;;;;;;0.88;0.77;;;19.60;99.90;;;;;;5092194;28;20035;-75
2022/07/30 07:39:35;;;;;;;1.27;0.85;;;19.60;99.90;;;;;;5091873;28;20039;-75
2022/07/30 07:42:01;;;;;;;1.27;1.00;;;19.50;99.90;;;;;;5093421;28;20027;-75
2022/07/30 07:44:27;;;;;;;1.63;0.68;;;19.50;99.90;;;;;;5095787;28;20031;-75
2022/07/30 07:46:52;;;;;;;1.38;1.20;;;19.50;99.90;;;;;;5095706;28;20038;-75
2022/07/30 07:49:18;;;;;;;3.20;1.42;;;19.60;99.90;;;;;;5095751;28;20039;-75
2022/07/30 07:51:43;;;;;;;1.20;1.10;;;19.60;99.90;;;;;;5095352;28;20024;-75
2022/07/30 07:54:09;;;;;;;2.33;1.40;;;19.60;99.90;;;;;;5095721;28;20028;-75
2022/07/30 07:56:35;;;;;;;1.30;1.10;;;19.60;99.90;;;;;;5095703;28;20346;-75
2022/07/30 07:59:00;;;;;;;0.90;0.90;;;19.60;99.90;;;;;;5095180;28;20024;-75
2022/07/30 08:01:26;;;;;;;1.40;1.15;;;19.60;99.90;;;;;;5095545;28;20380;-75
2022/07/30 08:03:51;;;;;;;1.08;1.02;;;19.60;99.90;;;;;;5095437;28;20099;-75
2022/07/30 08:06:17;;;;;;;1.88;1.08;;;19.70;99.90;;;;;;5095556;28;20032;-75
2022/07/30 08:08:43;;;;;;;1.98;1.33;;;19.70;99.90;;;;;;5094815;28;20032;-75
2022/07/30 08:11:08;;;;;;;1.30;1.20;;;19.70;99.90;;;;;;5095028;28;20372;-76
2022/07/30 08:13:34;;;;;;;1.40;1.30;;;19.70;99.90;;;;;;5094244;28;20026;-75
2022/07/30 08:16:01;;;;;;;1.33;1.10;;;19.70;99.90;;;;;;5094895;28;20456;-75
2022/07/30 08:18:27;;;;;;;1.45;1.00;;;19.70;99.90;;;;;;5095251;28;20024;-75
2022/07/30 08:20:52;;;;;;;1.77;1.10;;;19.70;99.90;;;;;;5095141;28;20035;-75
2022/07/30 08:23:21;;;;;;;1.05;0.93;;;19.70;99.90;;;;;;5094997;28;20376;-75
2022/07/30 08:25:47;;;;;;;1.48;1.17;;;19.70;99.90;;;;;;5094665;28;20035;-74
2022/07/30 08:28:12;;;;;;;1.98;1.25;;;19.80;99.90;;;;;;5094776;28;20107;-74
2022/07/30 08:30:38;;;;;;;1.08;0.98;;;19.80;99.90;;;;;;5127284;27;20458;-75
2022/07/30 08:33:04;;;;;;;1.25;1.08;;;19.80;99.90;;;;;;5094631;28;20031;-75
2022/07/30 08:35:29;;;;;;;1.95;1.33;;;19.80;99.90;;;;;;5094930;28;20471;-75
2022/07/30 08:37:55;;;;;;;1.30;1.20;;;19.80;99.90;;;;;;5094495;28;20025;-76
2022/07/30 08:40:25;;;;;;;1.52;1.27;;;19.80;99.90;;;;;;5095039;28;20028;-76
2022/07/30 08:42:52;;;;;;;2.03;1.50;;;19.80;99.90;;;;;;5094622;28;20063;-75
2022/07/30 08:45:18;;;;;;;1.27;1.17;;;19.80;99.90;;;;;;5094755;28;20024;-75
2022/07/30 08:47:45;;;;;;;1.42;1.15;;;19.80;99.90;;;;;;5094323;28;20024;-76
2022/07/30 08:50:11;;;;;;;1.98;1.77;;;19.80;99.90;;;;;;5094554;28;20036;-75
2022/07/30 08:52:38;;;;;;;2.53;1.35;;;19.80;99.90;;;;;;5094440;28;20024;-76
2022/07/30 08:55:04;;;;;;;1.45;1.35;;;19.80;99.90;;;;;;5094148;28;20555;-76
2022/07/30 08:57:32;;;;;;;1.55;1.45;;;19.70;99.90;;;;;;5094758;28;20100;-76
2022/07/30 08:59:58;;;;;;;2.17;1.60;;;19.70;99.90;;;;;;5094099;28;20031;-76
2022/07/30 09:02:24;;;;;;;1.58;1.30;;;19.80;99.90;;;;;;5094368;28;20036;-75
2022/07/30 09:04:50;;;;;;;1.50;1.33;;;19.80;99.90;;;;;;5094087;28;20101;-76
2022/07/30 09:07:16;;;;;;;1.80;1.50;;;19.80;99.90;;;;;;5094114;28;20518;-75
2022/07/30 09:09:42;;;;;;;3.83;1.70;;;19.80;99.90;;;;;;5094244;28;20119;-76
2022/07/30 09:12:32;;;;;;;1.50;1.40;;;19.80;99.90;;;;;;5093907;28;20452;-76
2022/07/30 09:15:09;;;;;;;1.97;1.40;;;19.80;99.90;;;;;;5093632;28;20032;-76
2022/07/30 09:17:55;;;;;;;1.85;1.08;;;19.80;99.90;;;;;;5094302;28;20028;-75
2022/07/30 09:20:23;;;;;;;2.30;1.50;;;19.80;99.90;;;;;;5094069;28;20391;-75
2022/07/30 09:22:55;;;;;;;2.03;1.75;;;19.80;99.90;;;;;;5093606;28;20031;-75
2022/07/30 09:25:44;;;;;;;2.17;1.63;;;19.90;99.90;;;;;;5093863;28;20418;-75
2022/07/30 09:28:11;;;;;;;1.58;1.48;;;19.90;99.90;;;;;;5093557;28;20173;-75
2022/07/30 09:30:52;;;;;;;1.75;1.60;;;19.90;99.90;;;;;;5093431;28;20155;-75
2022/07/30 09:33:35;;;;;;;1.85;1.67;;;19.90;99.90;;;;;;5093866;28;20035;-74
2022/07/30 09:36:01;;;;;;;2.13;1.92;;;19.90;99.90;;;;;;5093299;28;20032;-75
2022/07/30 09:38:27;;;;;;;3.05;1.80;;;20.00;99.90;;;;;;5093675;28;20032;-77
2022/07/30 09:40:54;;;;;;;2.58;2.03;;;20.00;99.90;;;;;;5093190;28;20032;-76
2022/07/30 09:43:20;;;;;;;2.42;1.85;;;20.00;99.90;;;;;;5093435;28;20016;-76
2022/07/30 09:45:57;;;;;;;2.38;1.85;;;20.00;99.90;;;;;;5093566;28;20073;-76
2022/07/30 09:48:26;;;;;;;2.38;2.08;;;20.10;99.90;;;;;;5093626;28;20031;-75
2022/07/30 09:50:52;;;;;;;2.42;2.00;;;20.10;99.90;;;;;;5093083;28;20040;-75
2022/07/30 09:53:21;;;;;;;2.28;1.90;;;20.10;99.90;;;;;;5092141;28;20028;-75
2022/07/30 09:55:47;;;;;;;3.75;2.30;;;20.20;99.90;;;;;;5093141;28;20441;-75
2022/07/30 09:58:13;;;;;;;2.47;2.08;;;20.30;99.90;;;;;;5093384;28;20016;-75
2022/07/30 10:00:39;;;;;;;2.10;1.85;;;20.30;99.90;;;;;;5093287;28;20357;-75
2022/07/30 10:03:25;;;;;;;2.47;1.85;;;20.40;99.90;;;;;;5092355;28;20020;-75
2022/07/30 10:05:52;;;;;;;3.13;2.65;;;20.50;99.90;;;;;;5092447;28;20035;-75
2022/07/30 10:08:19;;;;;;;2.45;2.25;;;20.60;99.90;;;;;;5093375;28;20353;-75
2022/07/30 10:10:45;;;;;;;3.63;2.60;;;20.70;99.90;;;;;;5093090;28;20052;-75
2022/07/30 10:13:13;;;;;;;3.28;2.20;;;20.70;99.90;;;;;;5092564;28;20031;-75
2022/07/30 10:15:39;;;;;;;2.45;2.10;;;20.80;99.90;;;;;;5093148;28;20027;-76
2022/07/30 10:18:05;;;;;;;3.40;2.33;;;20.80;99.90;;;;;;5092756;28;20481;-76
2022/07/30 10:20:31;;;;;;;3.28;2.22;;;20.90;99.90;;;;;;5093106;28;20028;-76
2022/07/30 10:22:57;;;;;;;4.00;2.58;;;20.90;99.90;;;;;;5092207;28;20380;-76
2022/07/30 10:25:25;;;;;;;3.35;2.40;;;21.00;99.90;;;;;;5092945;28;20031;-74
2022/07/30 10:27:51;;;;;;;4.47;2.83;;;21.10;99.90;;;;;;5092643;28;20507;-75
2022/07/30 10:30:17;;;;;;;3.95;2.60;;;21.10;99.90;;;;;;5092473;28;20048;-76
2022/07/30 10:32:44;;;;;;;2.97;2.45;;;21.20;99.90;;;;;;5093011;28;20026;-75
2022/07/30 10:35:11;;;;;;;2.95;2.35;;;21.30;99.90;;;;;;5092208;28;20472;-75
2022/07/30 10:37:43;;;;;;;4.53;2.97;;;21.30;99.90;;;;;;5092842;28;20465;-75
2022/07/30 10:40:16;;;;;;;3.05;2.65;;;21.40;99.90;;;;;;5092440;28;20132;-74
2022/07/30 10:43:00;;;;;;;3.08;2.78;;;21.50;99.90;;;;;;5092822;28;20027;-75
2022/07/30 10:45:48;;;;;;;2.45;2.25;;;21.60;99.90;;;;;;5092941;28;20027;-76
2022/07/30 10:48:15;;;;;;;6.88;2.95;;;21.70;99.90;;;;;;5092497;28;20020;-76
2022/07/30 10:50:55;;;;;;;3.85;3.03;;;21.80;99.90;;;;;;5092689;28;20489;-76
2022/07/30 10:53:37;;;;;;;3.30;2.80;;;21.80;99.90;;;;;;5092869;28;20030;-76
2022/07/30 10:56:12;;;;;;;4.43;2.85;;;21.80;99.90;;;;;;5092268;28;20024;-76
2022/07/30 10:58:58;;;;;;;3.90;2.97;;;21.80;99.90;;;;;;5092716;28;20161;-75
2022/07/30 11:01:25;;;;;;;3.63;3.00;;;21.90;99.90;;;;;;5092770;28;20024;-75
2022/07/30 11:04:25;;;;;;;3.63;3.13;;;22.00;99.90;;;;;;5092666;28;20031;-74
2022/07/30 11:07:12;;;;;;;2.95;2.65;;;22.00;99.90;;;;;;5092973;28;20027;-74
2022/07/30 11:09:44;;;;;;;3.45;2.60;;;22.10;99.90;;;;;;5092116;28;20047;-75
2022/07/30 11:12:10;;;;;;;3.92;3.22;;;22.20;99.90;;;;;;5092147;28;20056;-74
2022/07/30 11:14:45;;;;;;;2.67;2.40;;;22.30;99.90;;;;;;5092468;28;20082;-76
2022/07/30 11:17:14;;;;;;;3.10;2.70;;;22.40;99.90;;;;;;5093355;28;20028;-74
2022/07/30 11:20:06;;;;;;;3.65;2.92;;;22.50;99.90;;;;;;5096390;28;20078;-75
2022/07/30 11:22:40;;;;;;;3.08;2.70;;;22.60;99.90;;;;;;5096592;28;20020;-75
2022/07/30 11:25:28;;;;;;;3.20;2.58;;;22.60;99.90;;;;;;5094760;28;20426;-75
2022/07/30 11:27:54;;;;;;;4.60;3.20;;;22.70;99.90;;;;;;5095420;28;20103;-75
2022/07/30 11:30:20;;;;;;;3.45;2.58;;;22.80;99.00;;;;;;5096461;28;20044;-75
2022/07/30 11:32:50;;;;;;;3.20;2.70;;;22.80;99.00;;;;;;5095613;28;20453;-74
2022/07/30 11:35:29;;;;;;;4.25;2.83;;;22.80;98.30;;;;;;5095482;28;20035;-74
2022/07/30 11:38:08;;;;;;;5.65;2.67;;;22.90;98.70;;;;;;5092302;28;20516;-74
2022/07/30 11:40:45;;;;;;;2.75;2.53;;;23.00;98.70;;;;;;5095686;28;20081;-74
2022/07/30 11:43:27;;;;;;;5.32;2.92;;;23.10;97.70;;;;;;5095232;28;20042;-74
2022/07/30 11:46:03;;;;;;;3.25;2.88;;;23.20;97.90;;;;;;5095644;28;20024;-74
2022/07/30 11:48:30;;;;;;;2.55;2.20;;;23.20;97.20;;;;;;5095524;28;20593;-74
2022/07/30 11:50:56;;;;;;;2.55;2.10;;;23.30;97.10;;;;;;5094866;28;20384;-75
2022/07/30 11:53:23;;;;;;;2.30;2.10;;;23.30;96.80;;;;;;5095014;28;20055;-74
2022/07/30 11:55:54;;;;;;;3.78;2.25;;;23.40;95.40;;;;;;5093997;28;20020;-74
2022/07/30 11:58:23;;;;;;;2.95;2.58;;;23.50;95.10;;;;;;5095406;28;20372;-74
2022/07/30 12:00:49;;;;;;;3.63;2.30;;;23.50;94.80;;;;;;5095283;28;20372;-75
2022/07/30 12:03:17;;;;;;;4.25;2.50;;;23.50;95.00;;;;;;5094719;28;20071;-74
2022/07/30 12:05:44;;;;;;;2.92;2.55;;;23.50;93.80;;;;;;5095293;28;20372;-74
2022/07/30 12:08:11;;;;;;;3.45;2.63;;;23.50;93.60;;;;;;5094984;28;20024;-73
2022/07/30 12:10:40;;;;;;;3.97;2.50;;;23.50;94.00;;;;;;5094481;28;20036;-73
2022/07/30 12:13:14;;;;;;;3.55;2.30;;;23.50;93.90;;;;;;5074326;28;20025;-74
2022/07/30 12:15:45;;;;;;;3.30;2.17;;;23.40;93.70;;;;;;5074582;28;20044;-74
2022/07/30 12:18:15;;;;;;;3.15;2.50;;;23.30;93.80;;;;;;5077079;28;20032;-74
2022/07/30 12:20:40;;;;;;;3.55;2.40;;;23.20;93.70;;;;;;5091676;28;20182;-74
2022/07/30 12:23:10;;;;;;;2.80;2.20;;;23.20;93.90;;;;;;5092981;28;20111;-74
2022/07/30 12:25:43;;;;;;;5.57;2.85;;;23.10;94.10;;;;;;5093614;28;20024;-75
2022/07/30 12:28:19;;;;;;;3.50;2.92;;;23.10;94.20;;;;;;5092758;28;20027;-74
2022/07/30 12:30:45;;;;;;;3.17;2.70;;;23.00;94.30;;;;;;5095988;28;20071;-74
2022/07/30 12:33:10;;;;;;;3.95;2.65;;;23.00;94.30;;;;;;5096395;28;20056;-74
2022/07/30 12:35:49;;;;;;;3.08;2.40;;;23.00;94.10;;;;;;5094901;28;20028;-74
2022/07/30 12:38:16;;;;;;;2.75;2.40;;;23.00;94.10;;;;;;5094117;28;20024;-75
2022/07/30 12:40:52;;;;;;;3.10;2.65;;;23.00;94.20;;;;;;5094612;28;20028;-74
2022/07/30 12:43:52;;;;;;;2.95;2.65;;;22.90;94.50;;;;;;5093908;28;20032;-74
2022/07/30 12:46:26;;;;;;;3.75;2.92;;;22.90;94.40;;;;;;5094383;28;20073;-74
2022/07/30 12:48:52;;;;;;;2.70;2.50;;;23.00;94.40;;;;;;5093256;28;20107;-74
2022/07/30 12:51:18;;;;;;;2.83;2.33;;;23.00;94.40;;;;;;5094094;28;20071;-73
2022/07/30 12:53:44;;;;;;;3.00;2.20;;;23.00;93.90;;;;;;5094533;28;20039;-73
2022/07/30 12:56:20;;;;;;;3.35;2.63;;;23.10;93.90;;;;;;5093952;28;20024;-74
2022/07/30 12:58:45;;;;;;;2.75;2.38;;;23.20;93.70;;;;;;5094462;28;20099;-74